Houston, Texas
Traffic Map
Current Weather Conditions
Houston, Texas
Broken Clouds
Broken Clouds
29°
Feels Like: 33°
Wind Chill: 29° Ceiling: 4600
Heat Index: 33° Visibility: 10mi
Dew Point: 23° Wind: 0mph
Humidity: 70% Direction: ° ()
Pressure: 29.97in Gusts: 0mph
Raw Report DataKMCJ 230135Z AUTO 00000KT 10SM BKN046 29/23 A2997 RMK AO1
Traffic Incident Summary
Active as of:
Severity:
Category:
InformationThere was an issue retrieving the traffic information for this location. Please try a different location or try again shortly.
Advertisements
Track Severe Weather on mobile